sensor_id;sensor_type;location;lat;lon;timestamp;P1;durP1;ratioP1;P2;durP2;ratioP2
74963;SDS011;63521;51.900;4.748;2023-01-26T00:04:23;17.85;;;5.20;;
74963;SDS011;63521;51.900;4.748;2023-01-26T00:09:14;21.08;;;5.85;;
74963;SDS011;63521;51.900;4.748;2023-01-26T00:14:05;23.10;;;6.47;;
74963;SDS011;63521;51.900;4.748;2023-01-26T00:18:56;19.10;;;6.00;;
74963;SDS011;63521;51.900;4.748;2023-01-26T00:23:47;17.33;;;5.68;;
74963;SDS011;63521;51.900;4.748;2023-01-26T00:26:15;22.83;;;7.25;;
74963;SDS011;63521;51.900;4.748;2023-01-26T00:28:44;21.30;;;6.95;;
74963;SDS011;63521;51.900;4.748;2023-01-26T00:33:37;16.98;;;5.75;;
74963;SDS011;63521;51.900;4.748;2023-01-26T00:36:02;20.60;;;6.72;;
74963;SDS011;63521;51.900;4.748;2023-01-26T00:40:53;21.08;;;6.80;;
74963;SDS011;63521;51.900;4.748;2023-01-26T00:45:44;19.60;;;5.83;;
74963;SDS011;63521;51.900;4.748;2023-01-26T00:50:35;16.67;;;5.47;;
74963;SDS011;63521;51.900;4.748;2023-01-26T00:55:26;18.73;;;5.53;;
74963;SDS011;63521;51.900;4.748;2023-01-26T00:57:58;18.52;;;5.93;;
74963;SDS011;63521;51.900;4.748;2023-01-26T01:00:23;16.65;;;5.70;;
74963;SDS011;63521;51.900;4.748;2023-01-26T01:02:49;21.50;;;6.13;;
74963;SDS011;63521;51.900;4.748;2023-01-26T01:07:40;17.05;;;5.43;;
74963;SDS011;63521;51.900;4.748;2023-01-26T01:10:07;19.17;;;5.50;;
74963;SDS011;63521;51.900;4.748;2023-01-26T01:12:33;19.25;;;5.47;;
74963;SDS011;63521;51.900;4.748;2023-01-26T01:17:24;20.88;;;5.68;;
74963;SDS011;63521;51.900;4.748;2023-01-26T01:22:15;17.80;;;5.10;;
74963;SDS011;63521;51.900;4.748;2023-01-26T01:27:05;20.35;;;5.15;;
74963;SDS011;63521;51.900;4.748;2023-01-26T01:29:31;16.48;;;4.55;;
74963;SDS011;63521;51.900;4.748;2023-01-26T01:31:56;17.50;;;5.75;;
74963;SDS011;63521;51.900;4.748;2023-01-26T01:36:47;13.60;;;4.43;;
74963;SDS011;63521;51.900;4.748;2023-01-26T01:41:38;15.47;;;5.43;;
74963;SDS011;63521;51.900;4.748;2023-01-26T01:46:40;13.63;;;4.05;;
74963;SDS011;63521;51.900;4.748;2023-01-26T01:49:13;17.27;;;5.22;;
74963;SDS011;63521;51.900;4.748;2023-01-26T01:51:47;17.23;;;5.35;;
74963;SDS011;63521;51.900;4.748;2023-01-26T01:54:38;16.17;;;4.72;;
74963;SDS011;63521;51.900;4.748;2023-01-26T01:57:10;14.77;;;4.72;;
74963;SDS011;63521;51.900;4.748;2023-01-26T01:59:45;15.40;;;5.03;;
74963;SDS011;63521;51.900;4.748;2023-01-26T02:02:16;16.08;;;6.10;;
74963;SDS011;63521;51.900;4.748;2023-01-26T02:04:42;13.40;;;4.60;;
74963;SDS011;63521;51.900;4.748;2023-01-26T02:09:34;14.53;;;4.77;;
74963;SDS011;63521;51.900;4.748;2023-01-26T02:12:19;18.10;;;5.10;;
74963;SDS011;63521;51.900;4.748;2023-01-26T02:14:46;15.07;;;5.60;;
74963;SDS011;63521;51.900;4.748;2023-01-26T02:17:12;16.85;;;5.57;;
74963;SDS011;63521;51.900;4.748;2023-01-26T02:22:37;14.63;;;5.63;;
74963;SDS011;63521;51.900;4.748;2023-01-26T02:25:29;15.05;;;4.93;;
74963;SDS011;63521;51.900;4.748;2023-01-26T02:28:01;17.58;;;4.95;;
74963;SDS011;63521;51.900;4.748;2023-01-26T02:32:52;15.23;;;4.20;;
74963;SDS011;63521;51.900;4.748;2023-01-26T02:37:43;12.80;;;4.63;;
74963;SDS011;63521;51.900;4.748;2023-01-26T02:42:38;14.52;;;4.05;;
74963;SDS011;63521;51.900;4.748;2023-01-26T02:45:06;16.35;;;4.38;;
74963;SDS011;63521;51.900;4.748;2023-01-26T02:47:32;16.52;;;5.10;;
74963;SDS011;63521;51.900;4.748;2023-01-26T02:52:25;13.48;;;4.47;;
74963;SDS011;63521;51.900;4.748;2023-01-26T02:54:53;14.10;;;4.60;;
74963;SDS011;63521;51.900;4.748;2023-01-26T02:57:37;15.35;;;4.72;;
74963;SDS011;63521;51.900;4.748;2023-01-26T03:02:29;13.43;;;4.18;;
74963;SDS011;63521;51.900;4.748;2023-01-26T03:07:19;11.32;;;4.30;;
74963;SDS011;63521;51.900;4.748;2023-01-26T03:12:10;14.43;;;4.10;;
74963;SDS011;63521;51.900;4.748;2023-01-26T03:14:37;16.10;;;4.78;;
74963;SDS011;63521;51.900;4.748;2023-01-26T03:19:28;11.53;;;3.93;;
74963;SDS011;63521;51.900;4.748;2023-01-26T03:22:12;11.88;;;3.92;;
74963;SDS011;63521;51.900;4.748;2023-01-26T03:24:56;14.38;;;4.30;;
74963;SDS011;63521;51.900;4.748;2023-01-26T03:27:44;15.70;;;5.07;;
74963;SDS011;63521;51.900;4.748;2023-01-26T03:30:10;16.80;;;4.75;;
74963;SDS011;63521;51.900;4.748;2023-01-26T03:32:37;12.98;;;4.60;;
74963;SDS011;63521;51.900;4.748;2023-01-26T03:35:03;13.77;;;4.70;;
74963;SDS011;63521;51.900;4.748;2023-01-26T03:37:29;15.02;;;4.95;;
74963;SDS011;63521;51.900;4.748;2023-01-26T03:39:58;13.57;;;5.35;;
74963;SDS011;63521;51.900;4.748;2023-01-26T03:42:43;12.00;;;3.80;;
74963;SDS011;63521;51.900;4.748;2023-01-26T03:45:27;13.68;;;4.43;;
74963;SDS011;63521;51.900;4.748;2023-01-26T03:48:11;11.18;;;3.72;;
74963;SDS011;63521;51.900;4.748;2023-01-26T03:50:55;13.13;;;4.53;;
74963;SDS011;63521;51.900;4.748;2023-01-26T03:53:40;10.75;;;3.45;;
74963;SDS011;63521;51.900;4.748;2023-01-26T03:56:25;13.00;;;4.05;;
74963;SDS011;63521;51.900;4.748;2023-01-26T03:58:52;12.10;;;4.18;;
74963;SDS011;63521;51.900;4.748;2023-01-26T04:01:19;11.55;;;4.05;;
74963;SDS011;63521;51.900;4.748;2023-01-26T04:03:50;11.82;;;3.80;;
74963;SDS011;63521;51.900;4.748;2023-01-26T04:06:35;10.85;;;4.05;;
74963;SDS011;63521;51.900;4.748;2023-01-26T04:09:20;11.90;;;4.32;;
74963;SDS011;63521;51.900;4.748;2023-01-26T04:11:45;12.07;;;4.13;;
74963;SDS011;63521;51.900;4.748;2023-01-26T04:14:11;13.20;;;4.43;;
74963;SDS011;63521;51.900;4.748;2023-01-26T04:16:57;12.15;;;4.15;;
74963;SDS011;63521;51.900;4.748;2023-01-26T04:19:41;11.18;;;3.42;;
74963;SDS011;63521;51.900;4.748;2023-01-26T04:24:51;9.45;;;3.63;;
74963;SDS011;63521;51.900;4.748;2023-01-26T04:29:41;8.80;;;3.30;;
74963;SDS011;63521;51.900;4.748;2023-01-26T04:34:32;8.97;;;3.60;;
74963;SDS011;63521;51.900;4.748;2023-01-26T04:39:23;10.23;;;3.40;;
74963;SDS011;63521;51.900;4.748;2023-01-26T04:44:13;10.07;;;3.43;;
74963;SDS011;63521;51.900;4.748;2023-01-26T04:49:04;9.70;;;3.13;;
74963;SDS011;63521;51.900;4.748;2023-01-26T04:53:55;8.90;;;3.17;;
74963;SDS011;63521;51.900;4.748;2023-01-26T04:58:57;9.38;;;3.05;;
74963;SDS011;63521;51.900;4.748;2023-01-26T05:01:23;6.50;;;2.78;;
74963;SDS011;63521;51.900;4.748;2023-01-26T05:06:15;10.38;;;3.20;;
74963;SDS011;63521;51.900;4.748;2023-01-26T05:11:06;10.35;;;3.17;;
74963;SDS011;63521;51.900;4.748;2023-01-26T05:15:57;8.05;;;2.97;;
74963;SDS011;63521;51.900;4.748;2023-01-26T05:18:22;10.60;;;3.67;;
74963;SDS011;63521;51.900;4.748;2023-01-26T05:23:13;10.70;;;3.17;;
74963;SDS011;63521;51.900;4.748;2023-01-26T05:28:04;7.30;;;2.72;;
74963;SDS011;63521;51.900;4.748;2023-01-26T05:33:01;8.82;;;3.17;;
74963;SDS011;63521;51.900;4.748;2023-01-26T05:35:28;11.18;;;3.40;;
74963;SDS011;63521;51.900;4.748;2023-01-26T05:37:53;10.50;;;3.78;;
74963;SDS011;63521;51.900;4.748;2023-01-26T05:42:45;8.80;;;2.95;;
74963;SDS011;63521;51.900;4.748;2023-01-26T05:45:11;7.88;;;3.25;;
74963;SDS011;63521;51.900;4.748;2023-01-26T05:50:02;6.57;;;2.40;;
74963;SDS011;63521;51.900;4.748;2023-01-26T05:52:28;8.27;;;3.40;;
74963;SDS011;63521;51.900;4.748;2023-01-26T05:54:54;8.30;;;3.58;;
74963;SDS011;63521;51.900;4.748;2023-01-26T05:57:19;8.75;;;3.08;;
74963;SDS011;63521;51.900;4.748;2023-01-26T06:02:10;7.63;;;2.75;;
74963;SDS011;63521;51.900;4.748;2023-01-26T06:04:36;10.93;;;3.65;;
74963;SDS011;63521;51.900;4.748;2023-01-26T06:09:27;9.23;;;2.93;;
74963;SDS011;63521;51.900;4.748;2023-01-26T06:14:18;5.93;;;2.58;;
74963;SDS011;63521;51.900;4.748;2023-01-26T06:19:09;6.45;;;2.55;;
74963;SDS011;63521;51.900;4.748;2023-01-26T06:24:00;6.53;;;2.27;;
74963;SDS011;63521;51.900;4.748;2023-01-26T06:28:51;6.03;;;2.23;;
74963;SDS011;63521;51.900;4.748;2023-01-26T06:31:17;8.93;;;2.85;;
74963;SDS011;63521;51.900;4.748;2023-01-26T06:33:42;6.40;;;2.60;;
74963;SDS011;63521;51.900;4.748;2023-01-26T06:36:09;8.88;;;2.78;;
74963;SDS011;63521;51.900;4.748;2023-01-26T06:38:36;6.65;;;2.50;;
74963;SDS011;63521;51.900;4.748;2023-01-26T06:41:03;8.38;;;2.72;;
74963;SDS011;63521;51.900;4.748;2023-01-26T06:43:30;9.65;;;3.53;;
74963;SDS011;63521;51.900;4.748;2023-01-26T06:45:58;9.63;;;3.17;;
74963;SDS011;63521;51.900;4.748;2023-01-26T06:48:33;7.97;;;2.55;;
74963;SDS011;63521;51.900;4.748;2023-01-26T06:51:03;8.15;;;3.00;;
74963;SDS011;63521;51.900;4.748;2023-01-26T06:53:36;7.78;;;3.22;;
74963;SDS011;63521;51.900;4.748;2023-01-26T06:56:04;8.32;;;3.08;;
74963;SDS011;63521;51.900;4.748;2023-01-26T06:58:30;9.50;;;3.10;;
74963;SDS011;63521;51.900;4.748;2023-01-26T07:00:55;6.90;;;2.53;;
74963;SDS011;63521;51.900;4.748;2023-01-26T07:03:21;5.82;;;2.85;;
74963;SDS011;63521;51.900;4.748;2023-01-26T07:08:11;7.27;;;2.70;;
74963;SDS011;63521;51.900;4.748;2023-01-26T07:13:03;6.57;;;2.45;;
74963;SDS011;63521;51.900;4.748;2023-01-26T07:15:29;8.40;;;2.83;;
74963;SDS011;63521;51.900;4.748;2023-01-26T07:17:58;8.68;;;2.97;;
74963;SDS011;63521;51.900;4.748;2023-01-26T07:20:23;9.20;;;2.78;;
74963;SDS011;63521;51.900;4.748;2023-01-26T07:22:49;6.03;;;2.70;;
74963;SDS011;63521;51.900;4.748;2023-01-26T07:25:15;7.95;;;2.88;;
74963;SDS011;63521;51.900;4.748;2023-01-26T07:27:41;7.75;;;2.45;;
74963;SDS011;63521;51.900;4.748;2023-01-26T07:30:06;6.25;;;2.50;;
74963;SDS011;63521;51.900;4.748;2023-01-26T07:32:33;7.50;;;3.38;;
74963;SDS011;63521;51.900;4.748;2023-01-26T07:34:58;6.35;;;2.70;;
74963;SDS011;63521;51.900;4.748;2023-01-26T07:37:27;6.60;;;2.97;;
74963;SDS011;63521;51.900;4.748;2023-01-26T07:39:53;7.38;;;2.88;;
74963;SDS011;63521;51.900;4.748;2023-01-26T07:42:18;7.50;;;2.35;;
74963;SDS011;63521;51.900;4.748;2023-01-26T07:44:43;7.20;;;2.85;;
74963;SDS011;63521;51.900;4.748;2023-01-26T07:47:09;5.72;;;2.65;;
74963;SDS011;63521;51.900;4.748;2023-01-26T07:49:34;6.93;;;2.60;;
74963;SDS011;63521;51.900;4.748;2023-01-26T07:52:00;7.32;;;2.60;;
74963;SDS011;63521;51.900;4.748;2023-01-26T07:56:51;7.53;;;2.70;;
74963;SDS011;63521;51.900;4.748;2023-01-26T07:59:17;7.03;;;2.83;;
74963;SDS011;63521;51.900;4.748;2023-01-26T08:01:42;8.27;;;3.33;;
74963;SDS011;63521;51.900;4.748;2023-01-26T08:04:07;8.50;;;2.50;;
74963;SDS011;63521;51.900;4.748;2023-01-26T08:06:33;8.35;;;2.88;;
74963;SDS011;63521;51.900;4.748;2023-01-26T08:09:04;7.95;;;3.20;;
74963;SDS011;63521;51.900;4.748;2023-01-26T08:11:29;8.15;;;3.40;;
74963;SDS011;63521;51.900;4.748;2023-01-26T08:13:54;8.02;;;3.10;;
74963;SDS011;63521;51.900;4.748;2023-01-26T08:16:20;7.72;;;2.60;;
74963;SDS011;63521;51.900;4.748;2023-01-26T08:21:11;7.10;;;2.88;;
74963;SDS011;63521;51.900;4.748;2023-01-26T08:23:38;6.47;;;2.60;;
74963;SDS011;63521;51.900;4.748;2023-01-26T08:26:04;7.78;;;3.05;;
74963;SDS011;63521;51.900;4.748;2023-01-26T08:28:32;8.40;;;2.53;;
74963;SDS011;63521;51.900;4.748;2023-01-26T08:31:07;9.63;;;2.65;;
74963;SDS011;63521;51.900;4.748;2023-01-26T08:33:38;9.85;;;3.40;;
74963;SDS011;63521;51.900;4.748;2023-01-26T08:36:05;6.72;;;2.65;;
74963;SDS011;63521;51.900;4.748;2023-01-26T08:38:33;7.55;;;2.95;;
74963;SDS011;63521;51.900;4.748;2023-01-26T08:40:59;6.95;;;2.65;;
74963;SDS011;63521;51.900;4.748;2023-01-26T08:43:24;9.02;;;3.25;;
74963;SDS011;63521;51.900;4.748;2023-01-26T08:45:50;7.93;;;2.58;;
74963;SDS011;63521;51.900;4.748;2023-01-26T08:48:15;5.35;;;2.33;;
74963;SDS011;63521;51.900;4.748;2023-01-26T08:50:41;8.30;;;3.28;;
74963;SDS011;63521;51.900;4.748;2023-01-26T08:53:06;8.63;;;2.83;;
74963;SDS011;63521;51.900;4.748;2023-01-26T08:55:33;9.15;;;2.80;;
74963;SDS011;63521;51.900;4.748;2023-01-26T08:57:59;6.97;;;2.63;;
74963;SDS011;63521;51.900;4.748;2023-01-26T09:00:24;7.65;;;3.08;;
74963;SDS011;63521;51.900;4.748;2023-01-26T09:03:00;6.90;;;3.03;;
74963;SDS011;63521;51.900;4.748;2023-01-26T09:05:27;10.40;;;3.13;;
74963;SDS011;63521;51.900;4.748;2023-01-26T09:07:55;8.73;;;2.40;;
74963;SDS011;63521;51.900;4.748;2023-01-26T09:10:20;6.22;;;2.63;;
74963;SDS011;63521;51.900;4.748;2023-01-26T09:12:46;5.82;;;2.22;;
74963;SDS011;63521;51.900;4.748;2023-01-26T09:15:11;7.63;;;2.08;;
74963;SDS011;63521;51.900;4.748;2023-01-26T09:17:37;8.98;;;2.10;;
74963;SDS011;63521;51.900;4.748;2023-01-26T09:20:03;6.70;;;2.08;;
74963;SDS011;63521;51.900;4.748;2023-01-26T09:22:30;6.00;;;2.20;;
74963;SDS011;63521;51.900;4.748;2023-01-26T09:24:55;7.88;;;2.17;;
74963;SDS011;63521;51.900;4.748;2023-01-26T09:27:21;5.05;;;1.92;;
74963;SDS011;63521;51.900;4.748;2023-01-26T09:29:47;7.63;;;2.10;;
74963;SDS011;63521;51.900;4.748;2023-01-26T09:32:12;6.88;;;2.35;;
74963;SDS011;63521;51.900;4.748;2023-01-26T09:34:37;6.25;;;2.10;;
74963;SDS011;63521;51.900;4.748;2023-01-26T09:37:05;5.70;;;2.05;;
74963;SDS011;63521;51.900;4.748;2023-01-26T09:39:31;4.45;;;1.48;;
74963;SDS011;63521;51.900;4.748;2023-01-26T09:50:18;5.00;;;1.77;;
74963;SDS011;63521;51.900;4.748;2023-01-26T09:53:02;8.63;;;1.90;;
74963;SDS011;63521;51.900;4.748;2023-01-26T09:55:31;5.55;;;1.40;;
74963;SDS011;63521;51.900;4.748;2023-01-26T09:58:04;6.03;;;1.70;;
74963;SDS011;63521;51.900;4.748;2023-01-26T10:06:02;6.93;;;1.45;;
74963;SDS011;63521;51.900;4.748;2023-01-26T10:08:30;6.38;;;1.77;;
74963;SDS011;63521;51.900;4.748;2023-01-26T10:10:59;5.40;;;1.83;;
74963;SDS011;63521;51.900;4.748;2023-01-26T10:13:27;3.42;;;1.38;;
74963;SDS011;63521;51.900;4.748;2023-01-26T10:15:57;4.75;;;1.73;;
74963;SDS011;63521;51.900;4.748;2023-01-26T10:21:00;8.30;;;1.73;;
74963;SDS011;63521;51.900;4.748;2023-01-26T10:23:27;4.43;;;1.50;;
74963;SDS011;63521;51.900;4.748;2023-01-26T10:28:42;6.55;;;1.33;;
74963;SDS011;63521;51.900;4.748;2023-01-26T10:31:11;3.90;;;1.25;;
74963;SDS011;63521;51.900;4.748;2023-01-26T10:33:47;6.53;;;1.63;;
74963;SDS011;63521;51.900;4.748;2023-01-26T10:36:16;6.80;;;1.95;;
74963;SDS011;63521;51.900;4.748;2023-01-26T10:38:42;9.77;;;1.83;;
74963;SDS011;63521;51.900;4.748;2023-01-26T10:46:37;4.68;;;1.58;;
74963;SDS011;63521;51.900;4.748;2023-01-26T10:51:37;9.20;;;1.70;;
74963;SDS011;63521;51.900;4.748;2023-01-26T10:56:55;4.95;;;1.25;;
74963;SDS011;63521;51.900;4.748;2023-01-26T10:59:24;5.40;;;2.00;;
74963;SDS011;63521;51.900;4.748;2023-01-26T11:01:52;4.70;;;1.25;;
74963;SDS011;63521;51.900;4.748;2023-01-26T11:04:19;4.97;;;1.45;;
74963;SDS011;63521;51.900;4.748;2023-01-26T11:06:45;3.67;;;1.27;;
74963;SDS011;63521;51.900;4.748;2023-01-26T11:09:16;7.50;;;1.40;;
74963;SDS011;63521;51.900;4.748;2023-01-26T11:12:03;4.75;;;1.25;;
74963;SDS011;63521;51.900;4.748;2023-01-26T11:14:30;3.30;;;1.30;;
74963;SDS011;63521;51.900;4.748;2023-01-26T11:19:35;6.13;;;1.70;;
74963;SDS011;63521;51.900;4.748;2023-01-26T11:22:29;4.10;;;1.40;;
74963;SDS011;63521;51.900;4.748;2023-01-26T11:25:01;3.67;;;1.40;;
74963;SDS011;63521;51.900;4.748;2023-01-26T11:32:40;6.20;;;1.35;;
74963;SDS011;63521;51.900;4.748;2023-01-26T11:35:25;5.15;;;1.33;;
74963;SDS011;63521;51.900;4.748;2023-01-26T11:59:50;2.80;;;1.20;;
74963;SDS011;63521;51.900;4.748;2023-01-26T12:02:32;3.92;;;1.35;;
74963;SDS011;63521;51.900;4.748;2023-01-26T12:05:01;7.93;;;1.45;;
74963;SDS011;63521;51.900;4.748;2023-01-26T12:07:35;4.60;;;1.20;;
74963;SDS011;63521;51.900;4.748;2023-01-26T12:10:40;4.88;;;1.02;;
74963;SDS011;63521;51.900;4.748;2023-01-26T12:15:37;7.03;;;1.20;;
74963;SDS011;63521;51.900;4.748;2023-01-26T12:21:02;3.22;;;0.98;;
74963;SDS011;63521;51.900;4.748;2023-01-26T12:23:32;3.92;;;1.30;;
74963;SDS011;63521;51.900;4.748;2023-01-26T12:26:10;7.22;;;0.93;;
74963;SDS011;63521;51.900;4.748;2023-01-26T12:34:27;6.72;;;0.88;;
74963;SDS011;63521;51.900;4.748;2023-01-26T12:39:50;3.78;;;1.08;;
74963;SDS011;63521;51.900;4.748;2023-01-26T12:42:26;6.25;;;1.13;;
74963;SDS011;63521;51.900;4.748;2023-01-26T12:44:59;2.58;;;1.25;;
74963;SDS011;63521;51.900;4.748;2023-01-26T12:55:30;4.03;;;0.90;;
74963;SDS011;63521;51.900;4.748;2023-01-26T12:58:09;4.65;;;1.02;;
74963;SDS011;63521;51.900;4.748;2023-01-26T13:00:37;3.40;;;0.98;;
74963;SDS011;63521;51.900;4.748;2023-01-26T13:05:53;2.70;;;1.35;;
74963;SDS011;63521;51.900;4.748;2023-01-26T13:11:05;1.23;;;0.55;;
74963;SDS011;63521;51.900;4.748;2023-01-26T13:13:33;5.65;;;1.02;;
74963;SDS011;63521;51.900;4.748;2023-01-26T13:18:50;2.92;;;0.88;;
74963;SDS011;63521;51.900;4.748;2023-01-26T13:31:49;1.33;;;0.70;;
74963;SDS011;63521;51.900;4.748;2023-01-26T13:40:48;3.95;;;0.63;;
74963;SDS011;63521;51.900;4.748;2023-01-26T13:43:28;2.35;;;0.63;;
74963;SDS011;63521;51.900;4.748;2023-01-26T13:51:25;3.05;;;0.63;;
74963;SDS011;63521;51.900;4.748;2023-01-26T13:54:04;5.07;;;0.95;;
74963;SDS011;63521;51.900;4.748;2023-01-26T13:56:32;2.70;;;0.80;;
74963;SDS011;63521;51.900;4.748;2023-01-26T13:59:03;3.22;;;1.30;;
74963;SDS011;63521;51.900;4.748;2023-01-26T14:01:43;3.78;;;0.90;;
74963;SDS011;63521;51.900;4.748;2023-01-26T14:04:13;2.50;;;0.60;;
74963;SDS011;63521;51.900;4.748;2023-01-26T14:06:41;1.85;;;0.65;;
74963;SDS011;63521;51.900;4.748;2023-01-26T14:09:10;4.18;;;1.00;;
74963;SDS011;63521;51.900;4.748;2023-01-26T14:11:36;1.73;;;0.73;;
74963;SDS011;63521;51.900;4.748;2023-01-26T14:14:02;2.53;;;0.82;;
74963;SDS011;63521;51.900;4.748;2023-01-26T14:16:31;4.93;;;0.70;;
74963;SDS011;63521;51.900;4.748;2023-01-26T14:21:48;3.05;;;0.70;;
74963;SDS011;63521;51.900;4.748;2023-01-26T14:26:55;2.50;;;0.63;;
74963;SDS011;63521;51.900;4.748;2023-01-26T14:29:21;3.15;;;0.85;;
74963;SDS011;63521;51.900;4.748;2023-01-26T14:31:48;3.33;;;1.00;;
74963;SDS011;63521;51.900;4.748;2023-01-26T14:34:20;2.50;;;1.10;;
74963;SDS011;63521;51.900;4.748;2023-01-26T14:36:47;1.98;;;0.90;;
74963;SDS011;63521;51.900;4.748;2023-01-26T14:39:17;2.78;;;0.90;;
74963;SDS011;63521;51.900;4.748;2023-01-26T14:41:44;1.75;;;0.80;;
74963;SDS011;63521;51.900;4.748;2023-01-26T14:44:11;3.38;;;0.90;;
74963;SDS011;63521;51.900;4.748;2023-01-26T14:46:59;1.98;;;0.60;;
74963;SDS011;63521;51.900;4.748;2023-01-26T14:49:33;0.68;;;0.52;;
74963;SDS011;63521;51.900;4.748;2023-01-26T14:52:21;2.08;;;0.80;;
74963;SDS011;63521;51.900;4.748;2023-01-26T14:54:49;2.35;;;0.52;;
74963;SDS011;63521;51.900;4.748;2023-01-26T14:57:17;4.45;;;1.02;;
74963;SDS011;63521;51.900;4.748;2023-01-26T15:02:14;2.92;;;0.63;;
74963;SDS011;63521;51.900;4.748;2023-01-26T15:04:55;2.90;;;0.88;;
74963;SDS011;63521;51.900;4.748;2023-01-26T15:07:41;1.60;;;0.70;;
74963;SDS011;63521;51.900;4.748;2023-01-26T15:15:35;1.15;;;0.68;;
74963;SDS011;63521;51.900;4.748;2023-01-26T15:18:03;1.70;;;0.50;;
74963;SDS011;63521;51.900;4.748;2023-01-26T15:20:42;1.90;;;0.65;;
74963;SDS011;63521;51.900;4.748;2023-01-26T15:23:18;3.00;;;0.65;;
74963;SDS011;63521;51.900;4.748;2023-01-26T15:25:48;1.77;;;0.70;;
74963;SDS011;63521;51.900;4.748;2023-01-26T15:28:15;1.17;;;0.47;;
74963;SDS011;63521;51.900;4.748;2023-01-26T15:30:47;0.57;;;0.38;;
74963;SDS011;63521;51.900;4.748;2023-01-26T15:36:01;1.63;;;0.60;;
74963;SDS011;63521;51.900;4.748;2023-01-26T15:38:26;1.45;;;0.70;;
74963;SDS011;63521;51.900;4.748;2023-01-26T15:40:52;2.20;;;0.65;;
74963;SDS011;63521;51.900;4.748;2023-01-26T15:43:17;2.00;;;0.55;;
74963;SDS011;63521;51.900;4.748;2023-01-26T15:48:19;3.03;;;0.55;;
74963;SDS011;63521;51.900;4.748;2023-01-26T15:50:46;0.65;;;0.50;;
74963;SDS011;63521;51.900;4.748;2023-01-26T15:53:12;3.15;;;0.75;;
74963;SDS011;63521;51.900;4.748;2023-01-26T15:55:38;0.77;;;0.40;;
74963;SDS011;63521;51.900;4.748;2023-01-26T15:58:04;2.25;;;0.85;;
74963;SDS011;63521;51.900;4.748;2023-01-26T16:00:30;1.52;;;0.65;;
74963;SDS011;63521;51.900;4.748;2023-01-26T16:02:55;2.05;;;0.55;;
74963;SDS011;63521;51.900;4.748;2023-01-26T16:05:21;0.82;;;0.63;;
74963;SDS011;63521;51.900;4.748;2023-01-26T16:07:48;3.55;;;0.80;;
74963;SDS011;63521;51.900;4.748;2023-01-26T16:10:15;2.00;;;0.80;;
74963;SDS011;63521;51.900;4.748;2023-01-26T16:12:42;2.53;;;0.60;;
74963;SDS011;63521;51.900;4.748;2023-01-26T16:17:48;0.73;;;0.38;;
74963;SDS011;63521;51.900;4.748;2023-01-26T16:20:14;1.00;;;0.38;;
74963;SDS011;63521;51.900;4.748;2023-01-26T16:22:39;1.42;;;0.63;;
74963;SDS011;63521;51.900;4.748;2023-01-26T16:25:19;1.67;;;0.60;;
74963;SDS011;63521;51.900;4.748;2023-01-26T16:27:48;1.52;;;0.60;;
74963;SDS011;63521;51.900;4.748;2023-01-26T16:30:13;2.10;;;0.60;;
74963;SDS011;63521;51.900;4.748;2023-01-26T16:32:38;2.20;;;0.57;;
74963;SDS011;63521;51.900;4.748;2023-01-26T16:35:24;1.30;;;0.70;;
74963;SDS011;63521;51.900;4.748;2023-01-26T16:37:50;2.45;;;0.60;;
74963;SDS011;63521;51.900;4.748;2023-01-26T16:40:17;1.73;;;0.43;;
74963;SDS011;63521;51.900;4.748;2023-01-26T16:42:58;5.30;;;0.98;;
74963;SDS011;63521;51.900;4.748;2023-01-26T16:45:24;0.93;;;0.60;;
74963;SDS011;63521;51.900;4.748;2023-01-26T16:47:54;3.85;;;0.80;;
74963;SDS011;63521;51.900;4.748;2023-01-26T16:50:24;3.03;;;0.50;;
74963;SDS011;63521;51.900;4.748;2023-01-26T16:52:50;1.55;;;0.63;;
74963;SDS011;63521;51.900;4.748;2023-01-26T16:55:16;1.42;;;0.50;;
74963;SDS011;63521;51.900;4.748;2023-01-26T16:57:42;3.95;;;0.55;;
74963;SDS011;63521;51.900;4.748;2023-01-26T17:00:11;1.30;;;0.52;;
74963;SDS011;63521;51.900;4.748;2023-01-26T17:02:38;0.52;;;0.52;;
74963;SDS011;63521;51.900;4.748;2023-01-26T17:05:03;3.63;;;0.75;;
74963;SDS011;63521;51.900;4.748;2023-01-26T17:07:29;3.00;;;0.80;;
74963;SDS011;63521;51.900;4.748;2023-01-26T17:09:55;1.52;;;0.57;;
74963;SDS011;63521;51.900;4.748;2023-01-26T17:12:20;2.45;;;0.60;;
74963;SDS011;63521;51.900;4.748;2023-01-26T17:14:45;1.40;;;0.50;;
74963;SDS011;63521;51.900;4.748;2023-01-26T17:17:11;1.35;;;0.60;;
74963;SDS011;63521;51.900;4.748;2023-01-26T17:19:36;3.50;;;0.52;;
74963;SDS011;63521;51.900;4.748;2023-01-26T17:22:02;3.83;;;0.95;;
74963;SDS011;63521;51.900;4.748;2023-01-26T17:24:27;2.60;;;0.68;;
74963;SDS011;63521;51.900;4.748;2023-01-26T17:26:53;3.67;;;0.65;;
74963;SDS011;63521;51.900;4.748;2023-01-26T17:29:18;2.00;;;0.80;;
74963;SDS011;63521;51.900;4.748;2023-01-26T17:31:44;2.42;;;0.75;;
74963;SDS011;63521;51.900;4.748;2023-01-26T17:34:09;1.75;;;0.60;;
74963;SDS011;63521;51.900;4.748;2023-01-26T17:36:35;1.58;;;0.60;;
74963;SDS011;63521;51.900;4.748;2023-01-26T17:39:00;1.30;;;0.65;;
74963;SDS011;63521;51.900;4.748;2023-01-26T17:41:25;1.42;;;0.38;;
74963;SDS011;63521;51.900;4.748;2023-01-26T17:43:52;1.20;;;0.60;;
74963;SDS011;63521;51.900;4.748;2023-01-26T17:46:18;2.30;;;0.70;;
74963;SDS011;63521;51.900;4.748;2023-01-26T17:48:44;2.67;;;0.50;;
74963;SDS011;63521;51.900;4.748;2023-01-26T17:51:12;2.97;;;0.77;;
74963;SDS011;63521;51.900;4.748;2023-01-26T17:53:41;1.00;;;0.60;;
74963;SDS011;63521;51.900;4.748;2023-01-26T17:56:08;2.75;;;0.82;;
74963;SDS011;63521;51.900;4.748;2023-01-26T17:58:34;2.35;;;0.68;;
74963;SDS011;63521;51.900;4.748;2023-01-26T18:01:00;1.48;;;0.70;;
74963;SDS011;63521;51.900;4.748;2023-01-26T18:03:26;1.67;;;0.90;;
74963;SDS011;63521;51.900;4.748;2023-01-26T18:05:52;1.83;;;0.60;;
74963;SDS011;63521;51.900;4.748;2023-01-26T18:08:18;2.38;;;0.65;;
74963;SDS011;63521;51.900;4.748;2023-01-26T18:10:44;1.58;;;0.80;;
74963;SDS011;63521;51.900;4.748;2023-01-26T18:13:09;1.23;;;0.73;;
74963;SDS011;63521;51.900;4.748;2023-01-26T18:15:35;2.85;;;0.90;;
74963;SDS011;63521;51.900;4.748;2023-01-26T18:18:01;1.90;;;0.68;;
74963;SDS011;63521;51.900;4.748;2023-01-26T18:20:27;3.78;;;0.70;;
74963;SDS011;63521;51.900;4.748;2023-01-26T18:22:53;3.55;;;0.68;;
74963;SDS011;63521;51.900;4.748;2023-01-26T18:25:18;0.98;;;0.52;;
74963;SDS011;63521;51.900;4.748;2023-01-26T18:27:45;2.80;;;0.77;;
74963;SDS011;63521;51.900;4.748;2023-01-26T18:30:11;3.50;;;0.80;;
74963;SDS011;63521;51.900;4.748;2023-01-26T18:32:37;3.55;;;0.73;;
74963;SDS011;63521;51.900;4.748;2023-01-26T18:35:03;2.80;;;1.10;;
74963;SDS011;63521;51.900;4.748;2023-01-26T18:37:29;1.92;;;0.65;;
74963;SDS011;63521;51.900;4.748;2023-01-26T18:39:57;2.08;;;0.70;;
74963;SDS011;63521;51.900;4.748;2023-01-26T18:42:24;3.35;;;0.77;;
74963;SDS011;63521;51.900;4.748;2023-01-26T18:44:49;3.40;;;0.95;;
74963;SDS011;63521;51.900;4.748;2023-01-26T18:47:15;1.88;;;1.00;;
74963;SDS011;63521;51.900;4.748;2023-01-26T18:49:40;3.17;;;0.80;;
74963;SDS011;63521;51.900;4.748;2023-01-26T18:52:06;0.75;;;0.60;;
74963;SDS011;63521;51.900;4.748;2023-01-26T18:54:31;1.85;;;0.70;;
74963;SDS011;63521;51.900;4.748;2023-01-26T18:56:57;1.83;;;0.63;;
74963;SDS011;63521;51.900;4.748;2023-01-26T18:59:22;2.17;;;0.80;;
74963;SDS011;63521;51.900;4.748;2023-01-26T19:01:48;1.60;;;0.90;;
74963;SDS011;63521;51.900;4.748;2023-01-26T19:04:13;1.73;;;0.60;;
74963;SDS011;63521;51.900;4.748;2023-01-26T19:06:39;1.60;;;0.70;;
74963;SDS011;63521;51.900;4.748;2023-01-26T19:09:05;1.08;;;0.47;;
74963;SDS011;63521;51.900;4.748;2023-01-26T19:11:35;1.63;;;0.82;;
74963;SDS011;63521;51.900;4.748;2023-01-26T19:14:02;5.10;;;0.90;;
74963;SDS011;63521;51.900;4.748;2023-01-26T19:16:29;2.90;;;0.90;;
74963;SDS011;63521;51.900;4.748;2023-01-26T19:18:55;3.20;;;0.80;;